sensor_id;sensor_type;location;lat;lon;timestamp;P1;durP1;ratioP1;P2;durP2;ratioP2
68803;SDS011;55787;52.678;13.314;2024-03-02T00:01:26;57.90;;;21.98;;
68803;SDS011;55787;52.678;13.314;2024-03-02T00:03:52;53.77;;;20.43;;
68803;SDS011;55787;52.678;13.314;2024-03-02T00:06:20;59.05;;;20.92;;
68803;SDS011;55787;52.678;13.314;2024-03-02T00:08:48;53.25;;;19.90;;
68803;SDS011;55787;52.678;13.314;2024-03-02T00:11:15;59.13;;;21.00;;
68803;SDS011;55787;52.678;13.314;2024-03-02T00:13:42;57.63;;;21.85;;
68803;SDS011;55787;52.678;13.314;2024-03-02T00:16:09;54.03;;;21.00;;
68803;SDS011;55787;52.678;13.314;2024-03-02T00:18:37;55.17;;;20.83;;
68803;SDS011;55787;52.678;13.314;2024-03-02T00:21:04;57.08;;;20.95;;
68803;SDS011;55787;52.678;13.314;2024-03-02T00:23:35;54.72;;;22.17;;
68803;SDS011;55787;52.678;13.314;2024-03-02T00:26:03;51.22;;;20.38;;
68803;SDS011;55787;52.678;13.314;2024-03-02T00:28:31;50.43;;;20.00;;
68803;SDS011;55787;52.678;13.314;2024-03-02T00:33:45;61.53;;;20.70;;
68803;SDS011;55787;52.678;13.314;2024-03-02T00:36:17;53.13;;;20.55;;
68803;SDS011;55787;52.678;13.314;2024-03-02T00:38:51;57.53;;;20.40;;
68803;SDS011;55787;52.678;13.314;2024-03-02T00:41:23;60.77;;;21.27;;
68803;SDS011;55787;52.678;13.314;2024-03-02T00:46:26;56.88;;;20.42;;
68803;SDS011;55787;52.678;13.314;2024-03-02T00:48:56;48.97;;;20.10;;
68803;SDS011;55787;52.678;13.314;2024-03-02T00:51:26;56.53;;;21.92;;
68803;SDS011;55787;52.678;13.314;2024-03-02T00:53:54;55.70;;;21.40;;
68803;SDS011;55787;52.678;13.314;2024-03-02T00:56:23;58.35;;;21.33;;
68803;SDS011;55787;52.678;13.314;2024-03-02T00:58:50;57.25;;;20.80;;
68803;SDS011;55787;52.678;13.314;2024-03-02T01:01:18;54.55;;;19.67;;
68803;SDS011;55787;52.678;13.314;2024-03-02T01:03:46;56.22;;;20.95;;
68803;SDS011;55787;52.678;13.314;2024-03-02T01:06:12;55.33;;;20.53;;
68803;SDS011;55787;52.678;13.314;2024-03-02T01:08:39;56.88;;;21.15;;
68803;SDS011;55787;52.678;13.314;2024-03-02T01:11:06;57.33;;;21.83;;
68803;SDS011;55787;52.678;13.314;2024-03-02T01:13:33;69.97;;;23.38;;
68803;SDS011;55787;52.678;13.314;2024-03-02T01:16:00;57.38;;;22.70;;
68803;SDS011;55787;52.678;13.314;2024-03-02T01:18:26;54.67;;;21.67;;
68803;SDS011;55787;52.678;13.314;2024-03-02T01:20:53;60.55;;;22.25;;
68803;SDS011;55787;52.678;13.314;2024-03-02T01:23:22;58.08;;;23.02;;
68803;SDS011;55787;52.678;13.314;2024-03-02T01:25:50;57.92;;;22.05;;
68803;SDS011;55787;52.678;13.314;2024-03-02T01:28:18;67.05;;;23.75;;
68803;SDS011;55787;52.678;13.314;2024-03-02T01:30:46;63.43;;;23.03;;
68803;SDS011;55787;52.678;13.314;2024-03-02T01:33:13;59.53;;;23.48;;
68803;SDS011;55787;52.678;13.314;2024-03-02T01:35:40;62.00;;;22.90;;
68803;SDS011;55787;52.678;13.314;2024-03-02T01:38:07;60.53;;;22.90;;
68803;SDS011;55787;52.678;13.314;2024-03-02T01:40:34;59.97;;;23.13;;
68803;SDS011;55787;52.678;13.314;2024-03-02T01:43:01;62.27;;;22.53;;
68803;SDS011;55787;52.678;13.314;2024-03-02T01:45:28;64.00;;;23.42;;
68803;SDS011;55787;52.678;13.314;2024-03-02T01:47:55;66.55;;;23.60;;
68803;SDS011;55787;52.678;13.314;2024-03-02T01:50:29;61.17;;;23.40;;
68803;SDS011;55787;52.678;13.314;2024-03-02T01:52:58;61.53;;;23.35;;
68803;SDS011;55787;52.678;13.314;2024-03-02T01:55:25;61.07;;;23.20;;
68803;SDS011;55787;52.678;13.314;2024-03-02T01:57:53;61.42;;;22.70;;
68803;SDS011;55787;52.678;13.314;2024-03-02T02:00:20;62.75;;;23.50;;
68803;SDS011;55787;52.678;13.314;2024-03-02T02:02:48;66.00;;;23.80;;
68803;SDS011;55787;52.678;13.314;2024-03-02T02:05:15;60.25;;;22.35;;
68803;SDS011;55787;52.678;13.314;2024-03-02T02:07:42;63.10;;;22.60;;
68803;SDS011;55787;52.678;13.314;2024-03-02T02:10:10;60.58;;;23.27;;
68803;SDS011;55787;52.678;13.314;2024-03-02T02:12:37;62.40;;;23.85;;
68803;SDS011;55787;52.678;13.314;2024-03-02T02:15:04;63.97;;;22.83;;
68803;SDS011;55787;52.678;13.314;2024-03-02T02:17:54;64.05;;;23.20;;
68803;SDS011;55787;52.678;13.314;2024-03-02T02:20:22;61.77;;;22.83;;
68803;SDS011;55787;52.678;13.314;2024-03-02T02:25:23;61.90;;;23.77;;
68803;SDS011;55787;52.678;13.314;2024-03-02T02:27:49;64.75;;;23.83;;
68803;SDS011;55787;52.678;13.314;2024-03-02T02:30:20;59.28;;;23.48;;
68803;SDS011;55787;52.678;13.314;2024-03-02T02:32:48;70.20;;;24.63;;
68803;SDS011;55787;52.678;13.314;2024-03-02T02:35:15;64.03;;;24.33;;
68803;SDS011;55787;52.678;13.314;2024-03-02T02:37:42;68.38;;;25.38;;
68803;SDS011;55787;52.678;13.314;2024-03-02T02:40:09;64.55;;;24.17;;
68803;SDS011;55787;52.678;13.314;2024-03-02T02:42:37;68.22;;;24.80;;
68803;SDS011;55787;52.678;13.314;2024-03-02T02:45:04;68.33;;;24.73;;
68803;SDS011;55787;52.678;13.314;2024-03-02T02:47:31;74.55;;;25.77;;
68803;SDS011;55787;52.678;13.314;2024-03-02T02:50:04;68.00;;;24.90;;
68803;SDS011;55787;52.678;13.314;2024-03-02T02:52:33;67.93;;;24.65;;
68803;SDS011;55787;52.678;13.314;2024-03-02T02:55:03;68.05;;;24.70;;
68803;SDS011;55787;52.678;13.314;2024-03-02T02:57:33;62.87;;;23.73;;
68803;SDS011;55787;52.678;13.314;2024-03-02T03:00:07;70.68;;;25.48;;
68803;SDS011;55787;52.678;13.314;2024-03-02T03:02:44;69.07;;;25.52;;
68803;SDS011;55787;52.678;13.314;2024-03-02T03:05:14;72.93;;;25.65;;
68803;SDS011;55787;52.678;13.314;2024-03-02T03:07:41;68.43;;;25.05;;
68803;SDS011;55787;52.678;13.314;2024-03-02T03:10:10;70.73;;;25.33;;
68803;SDS011;55787;52.678;13.314;2024-03-02T03:12:37;71.05;;;25.63;;
68803;SDS011;55787;52.678;13.314;2024-03-02T03:15:04;71.30;;;26.42;;
68803;SDS011;55787;52.678;13.314;2024-03-02T03:17:31;74.70;;;26.33;;
68803;SDS011;55787;52.678;13.314;2024-03-02T03:19:58;78.57;;;27.02;;
68803;SDS011;55787;52.678;13.314;2024-03-02T03:22:24;76.93;;;28.07;;
68803;SDS011;55787;52.678;13.314;2024-03-02T03:24:51;74.47;;;26.67;;
68803;SDS011;55787;52.678;13.314;2024-03-02T03:27:18;80.43;;;29.75;;
68803;SDS011;55787;52.678;13.314;2024-03-02T03:29:46;77.93;;;28.90;;
68803;SDS011;55787;52.678;13.314;2024-03-02T03:32:12;80.40;;;29.83;;
68803;SDS011;55787;52.678;13.314;2024-03-02T03:34:39;80.77;;;29.00;;
68803;SDS011;55787;52.678;13.314;2024-03-02T03:37:06;73.47;;;28.15;;
68803;SDS011;55787;52.678;13.314;2024-03-02T03:39:34;78.25;;;29.58;;
68803;SDS011;55787;52.678;13.314;2024-03-02T03:42:02;77.22;;;30.48;;
68803;SDS011;55787;52.678;13.314;2024-03-02T03:44:29;77.70;;;30.67;;
68803;SDS011;55787;52.678;13.314;2024-03-02T03:46:56;75.57;;;29.57;;
68803;SDS011;55787;52.678;13.314;2024-03-02T03:49:22;74.50;;;29.05;;
68803;SDS011;55787;52.678;13.314;2024-03-02T03:51:49;82.30;;;30.90;;
68803;SDS011;55787;52.678;13.314;2024-03-02T03:54:16;77.15;;;29.05;;
68803;SDS011;55787;52.678;13.314;2024-03-02T03:56:42;83.60;;;30.05;;
68803;SDS011;55787;52.678;13.314;2024-03-02T03:59:09;80.03;;;29.97;;
68803;SDS011;55787;52.678;13.314;2024-03-02T04:01:35;86.55;;;31.08;;
68803;SDS011;55787;52.678;13.314;2024-03-02T04:04:02;84.28;;;31.33;;
68803;SDS011;55787;52.678;13.314;2024-03-02T04:06:30;85.05;;;31.35;;
68803;SDS011;55787;52.678;13.314;2024-03-02T04:08:57;83.07;;;30.58;;
68803;SDS011;55787;52.678;13.314;2024-03-02T04:11:23;80.77;;;29.93;;
68803;SDS011;55787;52.678;13.314;2024-03-02T04:13:50;76.60;;;29.50;;
68803;SDS011;55787;52.678;13.314;2024-03-02T04:16:17;80.25;;;30.67;;
68803;SDS011;55787;52.678;13.314;2024-03-02T04:18:43;81.07;;;31.65;;
68803;SDS011;55787;52.678;13.314;2024-03-02T04:21:10;77.25;;;29.83;;
68803;SDS011;55787;52.678;13.314;2024-03-02T04:23:37;73.27;;;28.83;;
68803;SDS011;55787;52.678;13.314;2024-03-02T04:26:04;74.80;;;29.73;;
68803;SDS011;55787;52.678;13.314;2024-03-02T04:28:30;80.97;;;31.10;;
68803;SDS011;55787;52.678;13.314;2024-03-02T04:30:57;79.68;;;30.05;;
68803;SDS011;55787;52.678;13.314;2024-03-02T04:33:24;76.32;;;30.38;;
68803;SDS011;55787;52.678;13.314;2024-03-02T04:35:50;79.67;;;30.93;;
68803;SDS011;55787;52.678;13.314;2024-03-02T04:38:17;77.55;;;30.00;;
68803;SDS011;55787;52.678;13.314;2024-03-02T04:40:43;80.15;;;30.73;;
68803;SDS011;55787;52.678;13.314;2024-03-02T04:43:10;80.13;;;31.02;;
68803;SDS011;55787;52.678;13.314;2024-03-02T04:45:38;83.85;;;31.02;;
68803;SDS011;55787;52.678;13.314;2024-03-02T04:48:05;81.03;;;31.30;;
68803;SDS011;55787;52.678;13.314;2024-03-02T04:50:32;80.25;;;31.10;;
68803;SDS011;55787;52.678;13.314;2024-03-02T04:52:58;78.05;;;29.83;;
68803;SDS011;55787;52.678;13.314;2024-03-02T04:55:25;79.85;;;29.65;;
68803;SDS011;55787;52.678;13.314;2024-03-02T04:57:54;82.97;;;30.88;;
68803;SDS011;55787;52.678;13.314;2024-03-02T05:00:21;85.57;;;30.47;;
68803;SDS011;55787;52.678;13.314;2024-03-02T05:02:48;79.32;;;30.35;;
68803;SDS011;55787;52.678;13.314;2024-03-02T05:05:14;80.18;;;30.60;;
68803;SDS011;55787;52.678;13.314;2024-03-02T05:07:43;79.07;;;28.48;;
68803;SDS011;55787;52.678;13.314;2024-03-02T05:10:10;82.30;;;29.63;;
68803;SDS011;55787;52.678;13.314;2024-03-02T05:12:41;78.20;;;30.33;;
68803;SDS011;55787;52.678;13.314;2024-03-02T05:15:11;76.35;;;29.80;;
68803;SDS011;55787;52.678;13.314;2024-03-02T05:17:40;75.40;;;30.20;;
68803;SDS011;55787;52.678;13.314;2024-03-02T05:20:11;78.38;;;29.63;;
68803;SDS011;55787;52.678;13.314;2024-03-02T05:22:38;74.78;;;28.15;;
68803;SDS011;55787;52.678;13.314;2024-03-02T05:25:06;72.80;;;28.50;;
68803;SDS011;55787;52.678;13.314;2024-03-02T05:27:36;80.03;;;30.30;;
68803;SDS011;55787;52.678;13.314;2024-03-02T05:30:02;73.55;;;28.42;;
68803;SDS011;55787;52.678;13.314;2024-03-02T05:32:31;81.35;;;30.23;;
68803;SDS011;55787;52.678;13.314;2024-03-02T05:34:57;81.18;;;30.60;;
68803;SDS011;55787;52.678;13.314;2024-03-02T05:37:24;78.57;;;29.43;;
68803;SDS011;55787;52.678;13.314;2024-03-02T05:39:51;78.70;;;30.85;;
68803;SDS011;55787;52.678;13.314;2024-03-02T05:42:17;79.63;;;30.40;;
68803;SDS011;55787;52.678;13.314;2024-03-02T05:44:44;80.47;;;29.00;;
68803;SDS011;55787;52.678;13.314;2024-03-02T05:47:11;79.68;;;30.08;;
68803;SDS011;55787;52.678;13.314;2024-03-02T05:49:38;82.47;;;29.63;;
68803;SDS011;55787;52.678;13.314;2024-03-02T05:52:05;79.53;;;29.13;;
68803;SDS011;55787;52.678;13.314;2024-03-02T05:54:33;80.03;;;30.88;;
68803;SDS011;55787;52.678;13.314;2024-03-02T05:56:59;80.32;;;30.50;;
68803;SDS011;55787;52.678;13.314;2024-03-02T05:59:43;80.72;;;30.60;;
68803;SDS011;55787;52.678;13.314;2024-03-02T06:02:12;79.60;;;30.13;;
68803;SDS011;55787;52.678;13.314;2024-03-02T06:04:39;81.53;;;30.27;;
68803;SDS011;55787;52.678;13.314;2024-03-02T06:07:05;85.55;;;30.33;;
68803;SDS011;55787;52.678;13.314;2024-03-02T06:09:32;80.43;;;30.13;;
68803;SDS011;55787;52.678;13.314;2024-03-02T06:11:59;81.85;;;29.70;;
68803;SDS011;55787;52.678;13.314;2024-03-02T06:14:26;82.93;;;29.63;;
68803;SDS011;55787;52.678;13.314;2024-03-02T06:16:53;80.85;;;29.63;;
68803;SDS011;55787;52.678;13.314;2024-03-02T06:19:19;82.78;;;30.75;;
68803;SDS011;55787;52.678;13.314;2024-03-02T06:21:46;82.78;;;28.90;;
68803;SDS011;55787;52.678;13.314;2024-03-02T06:24:13;76.68;;;29.13;;
68803;SDS011;55787;52.678;13.314;2024-03-02T06:26:39;83.50;;;30.40;;
68803;SDS011;55787;52.678;13.314;2024-03-02T06:29:06;81.25;;;30.52;;
68803;SDS011;55787;52.678;13.314;2024-03-02T06:31:33;84.78;;;31.10;;
68803;SDS011;55787;52.678;13.314;2024-03-02T06:34:00;84.72;;;30.63;;
68803;SDS011;55787;52.678;13.314;2024-03-02T06:36:27;81.22;;;30.45;;
68803;SDS011;55787;52.678;13.314;2024-03-02T06:38:53;81.37;;;30.60;;
68803;SDS011;55787;52.678;13.314;2024-03-02T06:41:20;94.18;;;30.80;;
68803;SDS011;55787;52.678;13.314;2024-03-02T06:43:46;82.00;;;30.65;;
68803;SDS011;55787;52.678;13.314;2024-03-02T06:46:13;73.97;;;28.60;;
68803;SDS011;55787;52.678;13.314;2024-03-02T06:48:41;83.47;;;31.52;;
68803;SDS011;55787;52.678;13.314;2024-03-02T06:51:08;80.33;;;29.70;;
68803;SDS011;55787;52.678;13.314;2024-03-02T06:53:34;78.93;;;29.80;;
68803;SDS011;55787;52.678;13.314;2024-03-02T06:56:01;79.85;;;30.20;;
68803;SDS011;55787;52.678;13.314;2024-03-02T06:58:27;83.38;;;30.23;;
68803;SDS011;55787;52.678;13.314;2024-03-02T07:00:54;84.50;;;30.52;;
68803;SDS011;55787;52.678;13.314;2024-03-02T07:03:20;75.23;;;30.63;;
68803;SDS011;55787;52.678;13.314;2024-03-02T07:05:47;73.78;;;28.55;;
68803;SDS011;55787;52.678;13.314;2024-03-02T07:08:14;76.65;;;29.67;;
68803;SDS011;55787;52.678;13.314;2024-03-02T07:10:41;74.57;;;29.17;;
68803;SDS011;55787;52.678;13.314;2024-03-02T07:13:07;72.50;;;29.05;;
68803;SDS011;55787;52.678;13.314;2024-03-02T07:15:34;73.03;;;26.70;;
68803;SDS011;55787;52.678;13.314;2024-03-02T07:18:13;74.32;;;29.17;;
68803;SDS011;55787;52.678;13.314;2024-03-02T07:20:42;76.65;;;29.63;;
68803;SDS011;55787;52.678;13.314;2024-03-02T07:23:09;82.53;;;30.08;;
68803;SDS011;55787;52.678;13.314;2024-03-02T07:25:35;82.03;;;31.33;;
68803;SDS011;55787;52.678;13.314;2024-03-02T07:28:05;76.37;;;28.63;;
68803;SDS011;55787;52.678;13.314;2024-03-02T07:30:33;78.95;;;30.17;;
68803;SDS011;55787;52.678;13.314;2024-03-02T07:33:00;82.68;;;29.85;;
68803;SDS011;55787;52.678;13.314;2024-03-02T07:35:26;88.63;;;29.80;;
68803;SDS011;55787;52.678;13.314;2024-03-02T07:37:54;80.60;;;29.60;;
68803;SDS011;55787;52.678;13.314;2024-03-02T07:40:21;77.97;;;28.30;;
68803;SDS011;55787;52.678;13.314;2024-03-02T07:42:48;74.65;;;29.48;;
68803;SDS011;55787;52.678;13.314;2024-03-02T07:45:15;75.18;;;27.95;;
68803;SDS011;55787;52.678;13.314;2024-03-02T07:47:41;75.78;;;29.13;;
68803;SDS011;55787;52.678;13.314;2024-03-02T07:50:08;72.22;;;28.17;;
68803;SDS011;55787;52.678;13.314;2024-03-02T07:52:35;70.47;;;28.10;;
68803;SDS011;55787;52.678;13.314;2024-03-02T07:55:01;69.47;;;28.00;;
68803;SDS011;55787;52.678;13.314;2024-03-02T07:57:28;69.18;;;27.92;;
68803;SDS011;55787;52.678;13.314;2024-03-02T07:59:55;71.88;;;27.25;;
68803;SDS011;55787;52.678;13.314;2024-03-02T08:02:22;63.78;;;26.70;;
68803;SDS011;55787;52.678;13.314;2024-03-02T08:04:48;64.57;;;26.30;;
68803;SDS011;55787;52.678;13.314;2024-03-02T08:07:15;66.28;;;26.88;;
68803;SDS011;55787;52.678;13.314;2024-03-02T08:09:42;60.22;;;26.55;;
68803;SDS011;55787;52.678;13.314;2024-03-02T08:12:09;65.03;;;26.80;;
68803;SDS011;55787;52.678;13.314;2024-03-02T08:14:35;63.83;;;25.85;;
68803;SDS011;55787;52.678;13.314;2024-03-02T08:17:02;67.07;;;25.77;;
68803;SDS011;55787;52.678;13.314;2024-03-02T08:19:29;64.68;;;26.15;;
68803;SDS011;55787;52.678;13.314;2024-03-02T08:21:56;68.70;;;27.23;;
68803;SDS011;55787;52.678;13.314;2024-03-02T08:24:25;70.55;;;27.40;;
68803;SDS011;55787;52.678;13.314;2024-03-02T08:26:52;63.65;;;26.17;;
68803;SDS011;55787;52.678;13.314;2024-03-02T08:29:19;57.67;;;24.57;;
68803;SDS011;55787;52.678;13.314;2024-03-02T08:31:45;65.82;;;27.33;;
68803;SDS011;55787;52.678;13.314;2024-03-02T08:34:12;74.55;;;28.58;;
68803;SDS011;55787;52.678;13.314;2024-03-02T08:36:39;63.22;;;26.30;;
68803;SDS011;55787;52.678;13.314;2024-03-02T08:39:07;61.42;;;25.42;;
68803;SDS011;55787;52.678;13.314;2024-03-02T08:41:42;59.40;;;24.93;;
68803;SDS011;55787;52.678;13.314;2024-03-02T08:44:10;59.03;;;24.95;;
68803;SDS011;55787;52.678;13.314;2024-03-02T08:46:37;60.83;;;25.60;;
68803;SDS011;55787;52.678;13.314;2024-03-02T08:49:04;69.95;;;27.05;;
68803;SDS011;55787;52.678;13.314;2024-03-02T08:51:32;63.67;;;27.40;;
68803;SDS011;55787;52.678;13.314;2024-03-02T08:53:59;61.20;;;24.73;;
68803;SDS011;55787;52.678;13.314;2024-03-02T08:56:26;62.75;;;25.92;;
68803;SDS011;55787;52.678;13.314;2024-03-02T08:58:52;64.20;;;27.30;;
68803;SDS011;55787;52.678;13.314;2024-03-02T09:01:19;64.28;;;26.58;;
68803;SDS011;55787;52.678;13.314;2024-03-02T09:03:46;62.50;;;25.60;;
68803;SDS011;55787;52.678;13.314;2024-03-02T09:06:13;65.13;;;25.37;;
68803;SDS011;55787;52.678;13.314;2024-03-02T09:08:40;57.33;;;23.60;;
68803;SDS011;55787;52.678;13.314;2024-03-02T09:11:07;60.38;;;25.25;;
68803;SDS011;55787;52.678;13.314;2024-03-02T09:13:33;64.05;;;25.35;;
68803;SDS011;55787;52.678;13.314;2024-03-02T09:16:00;61.05;;;25.27;;
68803;SDS011;55787;52.678;13.314;2024-03-02T09:18:27;61.37;;;24.07;;
68803;SDS011;55787;52.678;13.314;2024-03-02T09:20:54;58.10;;;24.48;;
68803;SDS011;55787;52.678;13.314;2024-03-02T09:23:20;61.30;;;24.70;;
68803;SDS011;55787;52.678;13.314;2024-03-02T09:25:47;57.00;;;23.95;;
68803;SDS011;55787;52.678;13.314;2024-03-02T09:28:17;52.30;;;22.02;;
68803;SDS011;55787;52.678;13.314;2024-03-02T09:30:44;58.00;;;24.07;;
68803;SDS011;55787;52.678;13.314;2024-03-02T09:33:11;63.08;;;24.75;;
68803;SDS011;55787;52.678;13.314;2024-03-02T09:35:40;57.67;;;23.77;;
68803;SDS011;55787;52.678;13.314;2024-03-02T09:38:07;54.88;;;23.80;;
68803;SDS011;55787;52.678;13.314;2024-03-02T09:40:34;54.30;;;21.55;;
68803;SDS011;55787;52.678;13.314;2024-03-02T09:43:00;57.77;;;23.50;;
68803;SDS011;55787;52.678;13.314;2024-03-02T09:45:28;58.58;;;23.13;;
68803;SDS011;55787;52.678;13.314;2024-03-02T09:47:56;57.50;;;23.50;;
68803;SDS011;55787;52.678;13.314;2024-03-02T09:50:22;57.88;;;24.40;;
68803;SDS011;55787;52.678;13.314;2024-03-02T09:52:49;56.90;;;23.30;;
68803;SDS011;55787;52.678;13.314;2024-03-02T09:55:18;57.83;;;24.07;;
68803;SDS011;55787;52.678;13.314;2024-03-02T09:57:48;55.53;;;24.35;;
68803;SDS011;55787;52.678;13.314;2024-03-02T10:00:16;58.58;;;24.98;;
68803;SDS011;55787;52.678;13.314;2024-03-02T10:02:43;53.10;;;23.73;;
68803;SDS011;55787;52.678;13.314;2024-03-02T10:05:10;52.38;;;22.73;;
68803;SDS011;55787;52.678;13.314;2024-03-02T10:07:38;53.67;;;23.00;;
68803;SDS011;55787;52.678;13.314;2024-03-02T10:10:14;50.85;;;22.40;;
68803;SDS011;55787;52.678;13.314;2024-03-02T10:12:41;50.58;;;22.77;;
68803;SDS011;55787;52.678;13.314;2024-03-02T10:15:08;49.72;;;22.52;;
68803;SDS011;55787;52.678;13.314;2024-03-02T10:17:36;50.70;;;21.80;;
68803;SDS011;55787;52.678;13.314;2024-03-02T10:20:22;47.63;;;20.50;;
68803;SDS011;55787;52.678;13.314;2024-03-02T10:22:52;47.80;;;20.27;;
68803;SDS011;55787;52.678;13.314;2024-03-02T10:25:32;48.25;;;20.67;;
68803;SDS011;55787;52.678;13.314;2024-03-02T10:28:02;45.28;;;20.13;;
68803;SDS011;55787;52.678;13.314;2024-03-02T10:30:32;43.90;;;19.58;;
68803;SDS011;55787;52.678;13.314;2024-03-02T10:33:02;40.73;;;18.33;;
68803;SDS011;55787;52.678;13.314;2024-03-02T10:35:29;41.72;;;19.10;;
68803;SDS011;55787;52.678;13.314;2024-03-02T10:38:03;38.05;;;16.35;;
68803;SDS011;55787;52.678;13.314;2024-03-02T10:40:31;45.60;;;20.30;;
68803;SDS011;55787;52.678;13.314;2024-03-02T10:42:58;43.72;;;19.60;;
68803;SDS011;55787;52.678;13.314;2024-03-02T10:45:29;51.83;;;22.33;;
68803;SDS011;55787;52.678;13.314;2024-03-02T10:47:56;57.78;;;25.60;;
68803;SDS011;55787;52.678;13.314;2024-03-02T10:50:23;43.33;;;19.95;;
68803;SDS011;55787;52.678;13.314;2024-03-02T10:52:50;38.70;;;18.40;;
68803;SDS011;55787;52.678;13.314;2024-03-02T10:55:17;43.50;;;21.38;;
68803;SDS011;55787;52.678;13.314;2024-03-02T10:57:49;46.57;;;21.23;;
68803;SDS011;55787;52.678;13.314;2024-03-02T11:00:17;49.30;;;23.73;;
68803;SDS011;55787;52.678;13.314;2024-03-02T11:02:50;45.83;;;20.90;;
68803;SDS011;55787;52.678;13.314;2024-03-02T11:05:23;45.03;;;20.58;;
68803;SDS011;55787;52.678;13.314;2024-03-02T11:07:56;37.63;;;16.88;;
68803;SDS011;55787;52.678;13.314;2024-03-02T11:10:50;35.87;;;16.30;;
68803;SDS011;55787;52.678;13.314;2024-03-02T11:13:42;31.90;;;14.13;;
68803;SDS011;55787;52.678;13.314;2024-03-02T11:16:09;31.35;;;14.80;;
68803;SDS011;55787;52.678;13.314;2024-03-02T11:18:42;30.75;;;14.75;;
68803;SDS011;55787;52.678;13.314;2024-03-02T11:21:09;29.42;;;13.50;;
68803;SDS011;55787;52.678;13.314;2024-03-02T11:23:36;31.43;;;14.97;;
68803;SDS011;55787;52.678;13.314;2024-03-02T11:26:19;32.20;;;15.52;;
68803;SDS011;55787;52.678;13.314;2024-03-02T11:28:47;33.35;;;15.90;;
68803;SDS011;55787;52.678;13.314;2024-03-02T11:31:13;29.92;;;14.13;;
68803;SDS011;55787;52.678;13.314;2024-03-02T11:33:40;29.80;;;14.05;;
68803;SDS011;55787;52.678;13.314;2024-03-02T11:36:07;29.03;;;13.57;;
68803;SDS011;55787;52.678;13.314;2024-03-02T11:38:36;28.90;;;13.43;;
68803;SDS011;55787;52.678;13.314;2024-03-02T11:41:05;31.63;;;13.85;;
68803;SDS011;55787;52.678;13.314;2024-03-02T11:43:38;32.35;;;14.98;;
68803;SDS011;55787;52.678;13.314;2024-03-02T11:46:07;32.70;;;16.65;;
68803;SDS011;55787;52.678;13.314;2024-03-02T11:48:35;26.87;;;12.87;;
68803;SDS011;55787;52.678;13.314;2024-03-02T11:51:03;25.85;;;12.90;;
68803;SDS011;55787;52.678;13.314;2024-03-02T11:53:30;24.50;;;11.70;;
68803;SDS011;55787;52.678;13.314;2024-03-02T11:56:01;26.08;;;12.02;;
68803;SDS011;55787;52.678;13.314;2024-03-02T11:58:28;26.27;;;13.25;;
68803;SDS011;55787;52.678;13.314;2024-03-02T12:00:56;28.07;;;13.50;;
68803;SDS011;55787;52.678;13.314;2024-03-02T12:03:23;26.25;;;12.70;;
68803;SDS011;55787;52.678;13.314;2024-03-02T12:05:52;28.00;;;13.13;;
68803;SDS011;55787;52.678;13.314;2024-03-02T12:08:20;27.83;;;12.05;;
68803;SDS011;55787;52.678;13.314;2024-03-02T12:11:00;26.00;;;12.05;;
68803;SDS011;55787;52.678;13.314;2024-03-02T12:13:30;24.73;;;11.30;;
68803;SDS011;55787;52.678;13.314;2024-03-02T12:15:57;28.13;;;12.90;;
68803;SDS011;55787;52.678;13.314;2024-03-02T12:18:24;27.80;;;12.98;;
68803;SDS011;55787;52.678;13.314;2024-03-02T12:20:52;29.33;;;13.63;;
68803;SDS011;55787;52.678;13.314;2024-03-02T12:23:22;31.20;;;13.27;;
68803;SDS011;55787;52.678;13.314;2024-03-02T12:25:49;27.17;;;10.23;;
68803;SDS011;55787;52.678;13.314;2024-03-02T12:28:16;28.50;;;13.38;;
68803;SDS011;55787;52.678;13.314;2024-03-02T12:30:43;26.58;;;11.98;;
68803;SDS011;55787;52.678;13.314;2024-03-02T12:33:11;27.35;;;12.57;;
68803;SDS011;55787;52.678;13.314;2024-03-02T12:35:37;24.92;;;11.63;;
68803;SDS011;55787;52.678;13.314;2024-03-02T12:38:04;25.13;;;11.33;;
68803;SDS011;55787;52.678;13.314;2024-03-02T12:40:31;23.05;;;11.05;;
68803;SDS011;55787;52.678;13.314;2024-03-02T12:42:58;24.35;;;11.98;;
68803;SDS011;55787;52.678;13.314;2024-03-02T12:45:25;21.40;;;10.02;;
68803;SDS011;55787;52.678;13.314;2024-03-02T12:47:52;26.02;;;11.88;;
68803;SDS011;55787;52.678;13.314;2024-03-02T12:50:19;25.00;;;10.70;;
68803;SDS011;55787;52.678;13.314;2024-03-02T12:52:53;22.70;;;10.43;;
68803;SDS011;55787;52.678;13.314;2024-03-02T12:55:21;23.35;;;10.77;;
68803;SDS011;55787;52.678;13.314;2024-03-02T12:57:51;21.42;;;10.70;;
68803;SDS011;55787;52.678;13.314;2024-03-02T13:00:20;21.20;;;9.63;;
68803;SDS011;55787;52.678;13.314;2024-03-02T13:02:49;24.63;;;11.53;;
68803;SDS011;55787;52.678;13.314;2024-03-02T13:05:18;25.13;;;12.18;;
68803;SDS011;55787;52.678;13.314;2024-03-02T13:07:46;22.25;;;10.73;;
68803;SDS011;55787;52.678;13.314;2024-03-02T13:10:13;22.40;;;10.10;;
68803;SDS011;55787;52.678;13.314;2024-03-02T13:12:40;20.40;;;10.02;;
68803;SDS011;55787;52.678;13.314;2024-03-02T13:15:08;21.20;;;9.90;;
68803;SDS011;55787;52.678;13.314;2024-03-02T13:17:34;19.45;;;8.95;;
68803;SDS011;55787;52.678;13.314;2024-03-02T13:20:04;17.33;;;7.28;;
68803;SDS011;55787;52.678;13.314;2024-03-02T13:22:34;20.52;;;10.02;;
68803;SDS011;55787;52.678;13.314;2024-03-02T13:25:01;20.92;;;9.18;;
68803;SDS011;55787;52.678;13.314;2024-03-02T13:27:33;21.73;;;9.50;;
68803;SDS011;55787;52.678;13.314;2024-03-02T13:30:00;19.90;;;9.35;;
68803;SDS011;55787;52.678;13.314;2024-03-02T13:32:29;21.75;;;10.32;;
68803;SDS011;55787;52.678;13.314;2024-03-02T13:34:55;21.98;;;10.45;;
68803;SDS011;55787;52.678;13.314;2024-03-02T13:37:22;22.42;;;9.73;;
68803;SDS011;55787;52.678;13.314;2024-03-02T13:39:49;20.70;;;9.63;;
68803;SDS011;55787;52.678;13.314;2024-03-02T13:42:15;20.60;;;9.82;;
68803;SDS011;55787;52.678;13.314;2024-03-02T13:44:43;18.08;;;8.45;;
68803;SDS011;55787;52.678;13.314;2024-03-02T13:47:11;18.63;;;8.48;;
68803;SDS011;55787;52.678;13.314;2024-03-02T13:49:38;17.27;;;7.85;;
68803;SDS011;55787;52.678;13.314;2024-03-02T13:52:09;18.13;;;7.60;;
68803;SDS011;55787;52.678;13.314;2024-03-02T13:54:37;18.20;;;8.30;;
68803;SDS011;55787;52.678;13.314;2024-03-02T13:57:06;21.33;;;8.05;;
68803;SDS011;55787;52.678;13.314;2024-03-02T13:59:34;18.30;;;8.07;;
68803;SDS011;55787;52.678;13.314;2024-03-02T14:02:01;21.70;;;9.07;;
68803;SDS011;55787;52.678;13.314;2024-03-02T14:04:33;20.13;;;8.97;;
68803;SDS011;55787;52.678;13.314;2024-03-02T14:07:00;19.98;;;9.10;;
68803;SDS011;55787;52.678;13.314;2024-03-02T14:09:28;24.27;;;10.32;;
68803;SDS011;55787;52.678;13.314;2024-03-02T14:11:55;21.35;;;9.30;;
68803;SDS011;55787;52.678;13.314;2024-03-02T14:14:22;20.10;;;9.18;;
68803;SDS011;55787;52.678;13.314;2024-03-02T14:16:49;19.33;;;8.47;;
68803;SDS011;55787;52.678;13.314;2024-03-02T14:19:16;17.38;;;7.50;;
68803;SDS011;55787;52.678;13.314;2024-03-02T14:21:43;17.70;;;7.90;;
68803;SDS011;55787;52.678;13.314;2024-03-02T14:24:09;19.20;;;8.10;;